Time;durP1;ratioP1;P1;durP2;ratioP2;P2;SDS_P1;SDS_P2;PMS_P1;PMS_P2;Temp;Humidity;BMP_temperature;BMP_pressure;BME280_temperature;BME280_humidity;BME280_pressure;Samples;Min_cycle;Max_cycle;Signal;HPM_P1;HPM_P2
2022/08/28 00:02:06;;;;;;;11.63;4.18;;;12.50;99.90;;;;;;5046024;28;20059;-50
2022/08/28 00:05:00;;;;;;;13.15;4.57;;;12.50;99.90;;;;;;5046725;28;20055;-49
2022/08/28 00:07:29;;;;;;;11.65;4.78;;;12.50;99.90;;;;;;4964115;28;20051;-49
2022/08/28 00:09:54;;;;;;;10.23;5.15;;;12.50;99.90;;;;;;4963058;28;20093;-51
2022/08/28 00:12:20;;;;;;;17.77;5.93;;;12.50;99.90;;;;;;4957998;28;20066;-49
2022/08/28 00:14:49;;;;;;;9.25;4.65;;;12.50;99.90;;;;;;4946916;28;20548;-52
2022/08/28 00:17:14;;;;;;;12.88;4.82;;;12.50;99.90;;;;;;4964893;28;20113;-49
2022/08/28 00:19:40;;;;;;;11.88;4.45;;;12.50;99.90;;;;;;4948010;28;20051;-48
2022/08/28 00:22:07;;;;;;;7.72;4.72;;;12.50;99.90;;;;;;4964271;28;20081;-48
2022/08/28 00:24:33;;;;;;;9.60;4.63;;;12.50;99.90;;;;;;4964385;28;20073;-48
2022/08/28 00:29:43;;;;;;;11.55;4.78;;;12.50;99.90;;;;;;4963049;28;20081;-52
2022/08/28 00:32:09;;;;;;;9.85;4.35;;;12.50;99.90;;;;;;4964053;28;20146;-50
2022/08/28 00:34:35;;;;;;;7.78;4.10;;;12.50;99.90;;;;;;4964631;28;20050;-48
2022/08/28 00:37:01;;;;;;;12.95;4.60;;;12.40;99.90;;;;;;4965108;28;20146;-47
2022/08/28 00:39:27;;;;;;;9.25;5.05;;;12.40;99.90;;;;;;4964316;28;20189;-48
2022/08/28 00:41:53;;;;;;;9.63;4.88;;;12.30;99.90;;;;;;4963317;28;20047;-48
2022/08/28 00:44:23;;;;;;;9.50;5.07;;;12.30;99.90;;;;;;5005921;28;20056;-48
2022/08/28 00:46:50;;;;;;;9.90;4.25;;;12.30;99.90;;;;;;5045429;28;20049;-49
2022/08/28 00:49:26;;;;;;;9.73;5.10;;;12.20;99.90;;;;;;5045165;28;20057;-50
2022/08/28 00:52:14;;;;;;;10.10;4.88;;;12.20;99.90;;;;;;5024162;28;20076;-48
2022/08/28 00:54:51;;;;;;;10.75;4.78;;;12.20;99.90;;;;;;5025681;28;20093;-48
2022/08/28 00:57:22;;;;;;;10.18;5.03;;;12.20;99.90;;;;;;5026389;28;20053;-48
2022/08/28 00:59:48;;;;;;;10.38;4.50;;;12.20;99.90;;;;;;5024515;28;20504;-47
2022/08/28 01:02:14;;;;;;;7.93;4.75;;;12.10;99.90;;;;;;5025481;28;20048;-49
2022/08/28 01:04:41;;;;;;;10.48;5.18;;;12.10;99.90;;;;;;5024613;28;20077;-48
2022/08/28 01:07:13;;;;;;;7.65;4.20;;;12.10;99.90;;;;;;5024964;28;20098;-49
2022/08/28 01:09:49;;;;;;;13.48;5.47;;;12.10;99.90;;;;;;5024516;28;20738;-48
2022/08/28 01:12:20;;;;;;;8.55;5.32;;;12.10;99.90;;;;;;5015405;28;20675;-49
2022/08/28 01:14:48;;;;;;;13.65;4.68;;;12.00;99.90;;;;;;5023891;28;20162;-51
2022/08/28 01:17:16;;;;;;;13.07;4.90;;;12.00;99.90;;;;;;5025375;28;20037;-47
2022/08/28 01:19:57;;;;;;;12.40;5.18;;;12.00;99.90;;;;;;5017601;28;20049;-46
2022/08/28 01:22:29;;;;;;;6.78;4.78;;;12.00;99.90;;;;;;5023062;28;20064;-48
2022/08/28 01:24:59;;;;;;;8.70;4.53;;;12.00;99.90;;;;;;5023504;28;20958;-48
2022/08/28 01:27:26;;;;;;;15.10;4.85;;;11.90;99.90;;;;;;5023014;28;20588;-45
2022/08/28 01:29:52;;;;;;;7.72;4.32;;;11.90;99.90;;;;;;5025038;28;20061;-48
2022/08/28 01:32:32;;;;;;;11.95;4.82;;;11.90;99.90;;;;;;5025076;28;20489;-48
2022/08/28 01:35:00;;;;;;;8.68;4.53;;;11.90;99.90;;;;;;5023288;28;20052;-47
2022/08/28 01:37:27;;;;;;;9.50;4.07;;;11.80;99.90;;;;;;5025038;28;20495;-47
2022/08/28 01:39:53;;;;;;;9.73;4.20;;;11.80;99.90;;;;;;5024537;28;20489;-47
2022/08/28 01:42:19;;;;;;;5.55;3.95;;;11.80;99.90;;;;;;5023954;28;20190;-49
2022/08/28 01:44:46;;;;;;;8.45;4.57;;;11.80;99.90;;;;;;5019844;28;20050;-46
2022/08/28 01:47:12;;;;;;;10.30;4.95;;;11.80;99.90;;;;;;5022810;28;20060;-46
2022/08/28 01:49:38;;;;;;;11.05;4.80;;;11.90;99.90;;;;;;5024919;28;20053;-49
2022/08/28 01:52:04;;;;;;;6.68;3.95;;;11.90;99.90;;;;;;5036865;28;20053;-50
2022/08/28 01:54:30;;;;;;;7.03;4.00;;;11.90;99.90;;;;;;5044492;28;20137;-47
2022/08/28 01:56:56;;;;;;;6.53;5.18;;;11.80;99.90;;;;;;5044501;28;20044;-47
2022/08/28 01:59:22;;;;;;;9.02;3.80;;;11.80;99.90;;;;;;5044562;28;20685;-45
2022/08/28 02:01:48;;;;;;;8.23;4.35;;;11.80;99.90;;;;;;5043507;28;20053;-46
2022/08/28 02:04:14;;;;;;;8.95;4.53;;;11.70;99.90;;;;;;5045116;28;20059;-50
2022/08/28 02:06:40;;;;;;;10.63;4.57;;;11.70;99.90;;;;;;5045768;28;20044;-47
2022/08/28 02:09:07;;;;;;;11.77;3.63;;;11.70;99.90;;;;;;5045758;28;20115;-47
2022/08/28 02:11:34;;;;;;;13.90;4.55;;;11.60;99.90;;;;;;5029279;28;20052;-49
2022/08/28 02:14:00;;;;;;;13.73;4.72;;;11.60;99.90;;;;;;5027517;28;20095;-45
2022/08/28 02:16:27;;;;;;;9.13;4.18;;;11.60;99.90;;;;;;5044938;28;20643;-46
2022/08/28 02:18:53;;;;;;;11.95;4.38;;;11.60;99.90;;;;;;5044467;28;20045;-46
2022/08/28 02:21:19;;;;;;;7.90;4.60;;;11.50;99.90;;;;;;5026017;28;20103;-46
2022/08/28 02:23:45;;;;;;;10.85;4.18;;;11.50;99.90;;;;;;5026719;28;20102;-47
2022/08/28 02:26:13;;;;;;;9.23;4.00;;;11.50;99.90;;;;;;5025251;28;20055;-50
2022/08/28 02:28:45;;;;;;;12.35;4.75;;;11.50;99.90;;;;;;5044162;28;20047;-47
2022/08/28 02:31:14;;;;;;;10.05;4.30;;;11.50;99.90;;;;;;5041979;28;20049;-46
2022/08/28 02:33:43;;;;;;;7.90;4.13;;;11.50;99.90;;;;;;5044421;28;20057;-49
2022/08/28 02:36:10;;;;;;;4.18;3.50;;;11.50;99.90;;;;;;5046824;28;20045;-47
2022/08/28 02:38:37;;;;;;;10.68;4.32;;;11.40;99.90;;;;;;5047037;28;20095;-45
2022/08/28 02:41:04;;;;;;;10.50;4.20;;;11.50;99.90;;;;;;5047868;28;20058;-47
2022/08/28 02:43:31;;;;;;;10.65;4.45;;;11.40;99.90;;;;;;5047573;28;20718;-48
2022/08/28 02:45:57;;;;;;;8.93;4.45;;;11.40;99.90;;;;;;5047184;28;20132;-47
2022/08/28 02:48:28;;;;;;;12.32;4.13;;;11.40;99.90;;;;;;5047492;28;20048;-50
2022/08/28 02:51:02;;;;;;;10.27;4.40;;;11.40;99.90;;;;;;5047158;28;20156;-46
2022/08/28 02:53:28;;;;;;;10.50;4.10;;;11.30;99.90;;;;;;5047569;28;20053;-47
2022/08/28 02:55:55;;;;;;;12.15;4.07;;;11.30;99.90;;;;;;5028779;28;20061;-49
2022/08/28 02:58:21;;;;;;;8.68;4.45;;;11.20;99.90;;;;;;5046594;28;20048;-48
2022/08/28 03:00:48;;;;;;;10.70;4.35;;;11.20;99.90;;;;;;5047259;28;20049;-48
2022/08/28 03:03:14;;;;;;;9.05;4.53;;;11.30;99.90;;;;;;5047808;28;20120;-46
2022/08/28 03:05:41;;;;;;;8.25;4.00;;;11.20;99.90;;;;;;5047739;28;20059;-47
2022/08/28 03:08:07;;;;;;;8.52;4.13;;;11.20;99.90;;;;;;5046904;28;20052;-47
2022/08/28 03:10:33;;;;;;;10.43;3.95;;;11.20;99.90;;;;;;5047452;28;20049;-49
2022/08/28 03:12:59;;;;;;;6.65;4.03;;;11.20;99.90;;;;;;5047549;28;20052;-50
2022/08/28 03:15:25;;;;;;;8.40;4.47;;;11.20;99.90;;;;;;5028037;28;20053;-45
2022/08/28 03:17:51;;;;;;;12.45;3.95;;;11.20;99.90;;;;;;5047123;28;20530;-47
2022/08/28 03:20:18;;;;;;;7.22;4.50;;;11.20;99.90;;;;;;5047660;28;20044;-46
2022/08/28 03:25:29;;;;;;;7.32;4.00;;;11.20;99.90;;;;;;5047184;28;20114;-49
2022/08/28 03:27:55;;;;;;;7.35;3.95;;;11.20;99.90;;;;;;5046675;28;20057;-47
2022/08/28 03:30:22;;;;;;;9.02;4.28;;;11.20;99.90;;;;;;5046862;28;20092;-47
2022/08/28 03:32:48;;;;;;;11.18;3.90;;;11.10;99.90;;;;;;5046186;28;20083;-46
2022/08/28 03:35:16;;;;;;;8.43;4.38;;;11.10;99.90;;;;;;5046345;28;20044;-48
2022/08/28 03:37:42;;;;;;;8.45;3.97;;;11.10;99.90;;;;;;5046849;28;20053;-47
2022/08/28 03:40:08;;;;;;;7.63;3.92;;;11.20;99.90;;;;;;5046347;28;20511;-48
2022/08/28 03:42:34;;;;;;;4.95;3.33;;;11.20;99.90;;;;;;5046029;28;20048;-45
2022/08/28 03:45:02;;;;;;;6.82;4.05;;;11.10;99.90;;;;;;5046291;28;20438;-48
2022/08/28 03:47:28;;;;;;;6.22;4.45;;;11.10;99.90;;;;;;5027359;28;20203;-48
2022/08/28 03:49:58;;;;;;;6.60;4.53;;;11.00;99.90;;;;;;5046286;28;20812;-47
2022/08/28 03:52:25;;;;;;;10.77;4.00;;;11.00;99.90;;;;;;5044872;28;20575;-47
2022/08/28 03:54:51;;;;;;;11.02;4.95;;;10.90;99.90;;;;;;5046366;28;20065;-48
2022/08/28 03:57:21;;;;;;;9.82;4.43;;;10.90;99.90;;;;;;5045953;28;20572;-47
2022/08/28 03:59:48;;;;;;;9.68;4.05;;;10.80;99.90;;;;;;5046216;28;20059;-50
2022/08/28 04:02:17;;;;;;;9.45;4.88;;;10.80;99.90;;;;;;5046188;28;20044;-48
2022/08/28 04:04:47;;;;;;;8.05;3.78;;;10.90;99.90;;;;;;5046271;28;20049;-47
2022/08/28 04:07:13;;;;;;;5.20;4.18;;;10.80;99.90;;;;;;5045618;28;20492;-48
2022/08/28 04:09:39;;;;;;;6.88;4.05;;;10.90;99.90;;;;;;5045582;28;20075;-48
2022/08/28 04:12:07;;;;;;;8.07;4.90;;;10.90;99.90;;;;;;5045295;28;20487;-46
2022/08/28 04:14:33;;;;;;;9.70;4.57;;;10.90;99.90;;;;;;5046040;28;20541;-47
2022/08/28 04:16:59;;;;;;;8.90;3.38;;;10.90;99.90;;;;;;5046521;28;20106;-50
2022/08/28 04:19:25;;;;;;;9.20;3.65;;;10.90;99.90;;;;;;5046173;28;20049;-45
2022/08/28 04:21:52;;;;;;;12.77;4.20;;;10.90;99.90;;;;;;5046449;28;20044;-46
2022/08/28 04:24:18;;;;;;;10.30;4.40;;;10.90;99.90;;;;;;5026550;28;20056;-48
2022/08/28 04:26:44;;;;;;;7.82;4.20;;;10.90;99.90;;;;;;5046524;28;20064;-49
2022/08/28 04:29:10;;;;;;;7.72;4.07;;;10.90;99.90;;;;;;5045318;28;20551;-48
2022/08/28 04:31:38;;;;;;;8.07;4.43;;;10.90;99.90;;;;;;5045992;28;20498;-45
2022/08/28 04:34:05;;;;;;;14.70;4.30;;;10.90;99.90;;;;;;5045535;28;20045;-46
2022/08/28 04:36:35;;;;;;;7.53;3.22;;;10.90;99.90;;;;;;5047457;28;20049;-45
2022/08/28 04:39:04;;;;;;;10.43;3.05;;;10.90;99.90;;;;;;5046415;28;20059;-50
2022/08/28 04:41:30;;;;;;;10.77;3.60;;;10.90;99.90;;;;;;5026264;28;20130;-47
2022/08/28 04:43:57;;;;;;;8.88;3.28;;;10.80;99.90;;;;;;5046414;28;20167;-48
2022/08/28 04:46:28;;;;;;;5.25;3.08;;;10.90;99.90;;;;;;5046348;28;20052;-46
2022/08/28 04:48:55;;;;;;;4.57;2.80;;;10.80;99.90;;;;;;5045409;28;20210;-49
2022/08/28 04:51:21;;;;;;;8.27;3.70;;;10.70;99.90;;;;;;5044905;28;20041;-46
2022/08/28 04:53:47;;;;;;;8.00;3.97;;;10.70;99.90;;;;;;5046039;28;20110;-47
2022/08/28 04:56:13;;;;;;;7.38;3.60;;;10.70;99.90;;;;;;5045890;28;20106;-45
2022/08/28 04:58:40;;;;;;;8.90;3.45;;;10.70;99.90;;;;;;5046327;28;20044;-47
2022/08/28 05:01:11;;;;;;;7.32;3.80;;;10.70;99.90;;;;;;5045833;28;20461;-47
2022/08/28 05:03:38;;;;;;;5.32;3.35;;;10.80;99.90;;;;;;5027333;28;20056;-49
2022/08/28 05:06:05;;;;;;;4.70;3.03;;;10.80;99.90;;;;;;5027143;28;20044;-50
2022/08/28 05:08:31;;;;;;;5.88;3.25;;;10.90;99.90;;;;;;5025633;28;20064;-47
2022/08/28 05:11:09;;;;;;;7.38;3.63;;;10.90;99.90;;;;;;5045438;28;20049;-46
2022/08/28 05:13:35;;;;;;;9.38;3.95;;;11.00;99.90;;;;;;5044014;28;20052;-47
2022/08/28 05:16:03;;;;;;;7.80;3.70;;;11.20;99.90;;;;;;5045558;28;20044;-47
2022/08/28 05:18:29;;;;;;;5.72;3.60;;;11.30;99.90;;;;;;5045891;28;20123;-46
2022/08/28 05:20:54;;;;;;;5.57;3.50;;;11.50;99.90;;;;;;5044867;28;20582;-49
2022/08/28 05:23:20;;;;;;;8.75;3.78;;;11.80;99.90;;;;;;5026930;28;20049;-47
2022/08/28 05:25:47;;;;;;;5.82;3.80;;;12.40;99.90;;;;;;5025591;28;20056;-46
2022/08/28 05:28:15;;;;;;;6.95;3.90;;;13.20;99.90;;;;;;5045140;28;20044;-47
2022/08/28 05:30:42;;;;;;;7.82;3.78;;;13.30;99.90;;;;;;5044558;28;20059;-48
2022/08/28 05:33:10;;;;;;;7.00;3.47;;;13.50;99.90;;;;;;5044605;28;20106;-46
2022/08/28 05:35:38;;;;;;;6.47;3.90;;;14.10;99.90;;;;;;5044181;28;20053;-45
2022/08/28 05:38:05;;;;;;;7.85;3.42;;;15.20;99.90;;;;;;5044376;28;20049;-48
2022/08/28 05:40:31;;;;;;;5.97;3.42;;;16.30;99.90;;;;;;5044856;28;20131;-50
2022/08/28 05:42:57;;;;;;;7.97;3.28;;;17.30;99.90;;;;;;5044324;28;20404;-49
2022/08/28 05:45:23;;;;;;;7.00;2.92;;;18.30;99.90;;;;;;5043662;28;20060;-48
2022/08/28 05:47:50;;;;;;;7.07;3.22;;;19.10;99.90;;;;;;5027355;28;20048;-47
2022/08/28 05:50:17;;;;;;;8.15;3.20;;;19.90;99.90;;;;;;5045720;28;20045;-47
2022/08/28 05:52:43;;;;;;;6.97;3.03;;;20.60;99.90;;;;;;5023440;28;20103;-50
2022/08/28 05:55:11;;;;;;;6.78;3.50;;;21.30;99.90;;;;;;5024486;28;20089;-50
2022/08/28 05:57:38;;;;;;;6.18;3.03;;;21.80;99.90;;;;;;5024120;28;20061;-50
2022/08/28 06:00:06;;;;;;;5.97;2.97;;;22.30;99.90;;;;;;5025312;28;20443;-50
2022/08/28 06:02:33;;;;;;;10.07;3.33;;;22.90;99.90;;;;;;5024506;28;20050;-48
2022/08/28 06:05:00;;;;;;;6.43;2.97;;;23.20;99.50;;;;;;5024454;28;20080;-51
2022/08/28 06:07:26;;;;;;;7.72;3.20;;;24.00;99.00;;;;;;5022986;28;20119;-46
2022/08/28 06:09:52;;;;;;;6.18;3.35;;;24.40;98.10;;;;;;5025601;28;20053;-46
2022/08/28 06:12:20;;;;;;;7.90;2.97;;;25.10;97.60;;;;;;5028798;28;20056;-46
2022/08/28 06:14:46;;;;;;;7.18;2.70;;;25.60;96.10;;;;;;5026422;28;20064;-47
2022/08/28 06:17:12;;;;;;;5.60;3.05;;;26.00;95.40;;;;;;5028328;28;20068;-48
2022/08/28 06:19:38;;;;;;;6.65;2.72;;;26.40;95.00;;;;;;5027736;28;20053;-49
2022/08/28 06:22:05;;;;;;;6.90;2.40;;;26.70;94.40;;;;;;5039128;28;20063;-49
2022/08/28 06:24:31;;;;;;;7.13;3.15;;;27.00;94.00;;;;;;5047887;28;20061;-48
2022/08/28 06:26:58;;;;;;;6.53;2.53;;;27.50;93.90;;;;;;5047815;28;20045;-49
2022/08/28 06:29:26;;;;;;;6.70;3.20;;;28.00;94.00;;;;;;5026684;28;20049;-49
2022/08/28 06:31:54;;;;;;;8.52;3.20;;;28.20;92.80;;;;;;5048500;28;20055;-49
2022/08/28 06:34:20;;;;;;;8.68;3.22;;;28.40;92.00;;;;;;5048147;28;20060;-48
2022/08/28 06:36:46;;;;;;;6.05;2.45;;;28.30;92.10;;;;;;5030500;28;20052;-47
2022/08/28 06:39:13;;;;;;;6.03;2.50;;;28.40;92.10;;;;;;5047465;28;20140;-51
2022/08/28 06:41:41;;;;;;;8.50;3.08;;;28.60;92.20;;;;;;5048156;28;20484;-47
2022/08/28 06:44:13;;;;;;;7.80;2.35;;;28.70;91.40;;;;;;5030491;28;20048;-51
2022/08/28 06:46:40;;;;;;;5.90;2.97;;;28.80;90.80;;;;;;5048451;28;20138;-48
2022/08/28 06:49:07;;;;;;;9.88;2.78;;;28.70;91.00;;;;;;5047987;28;20050;-47
2022/08/28 06:51:34;;;;;;;6.32;2.60;;;28.80;90.30;;;;;;5048421;28;20060;-50
2022/08/28 06:54:01;;;;;;;7.38;3.28;;;28.90;90.50;;;;;;5048600;28;20061;-48
2022/08/28 06:56:27;;;;;;;8.13;2.55;;;29.00;89.70;;;;;;5048330;28;20077;-51
2022/08/28 06:58:55;;;;;;;6.22;2.90;;;28.60;90.00;;;;;;5047012;28;20114;-60
2022/08/28 07:01:27;;;;;;;6.90;2.78;;;28.80;88.80;;;;;;5048293;28;20068;-48
2022/08/28 07:03:55;;;;;;;;;;;28.80;88.20;;;;;;5049870;28;20056;-52
2022/08/28 07:06:22;;;;;;;8.38;2.45;;;28.30;87.60;;;;;;5048180;28;19939;-47
2022/08/28 07:08:49;;;;;;;7.22;2.88;;;28.40;89.00;;;;;;5030181;28;20056;-52
2022/08/28 07:11:25;;;;;;;6.00;2.67;;;28.40;88.60;;;;;;5047336;28;20049;-50
2022/08/28 07:13:52;;;;;;;6.93;2.35;;;28.20;88.80;;;;;;5048101;28;20087;-49
2022/08/28 07:16:21;;;;;;;7.57;2.42;;;27.20;88.70;;;;;;5046884;28;20053;-49
2022/08/28 07:18:47;;;;;;;9.43;2.78;;;26.60;90.10;;;;;;5041517;28;20045;-49
2022/08/28 07:21:13;;;;;;;8.15;2.70;;;26.20;90.50;;;;;;5039954;28;20409;-50
2022/08/28 07:23:43;;;;;;;7.88;2.58;;;25.60;91.60;;;;;;5039055;28;20124;-50
2022/08/28 07:26:21;;;;;;;5.30;2.30;;;25.20;92.00;;;;;;5028710;28;20439;-48
2022/08/28 07:28:47;;;;;;;6.60;2.47;;;24.90;91.90;;;;;;5045436;28;20056;-50
2022/08/28 07:31:17;;;;;;;7.82;2.63;;;24.40;92.20;;;;;;5027394;28;20065;-53
2022/08/28 07:33:44;;;;;;;5.30;2.10;;;24.30;92.40;;;;;;5028508;28;20067;-49
2022/08/28 07:36:14;;;;;;;8.07;2.20;;;24.20;92.40;;;;;;5046133;28;20045;-50
2022/08/28 07:38:40;;;;;;;7.65;2.22;;;24.10;92.60;;;;;;5046095;28;20053;-49
2022/08/28 07:41:20;;;;;;;4.88;2.03;;;23.90;93.10;;;;;;5046352;28;20063;-49
2022/08/28 07:46:32;;;;;;;9.70;2.80;;;23.20;93.50;;;;;;5043263;28;20044;-52
2022/08/28 07:48:58;;;;;;;6.95;2.72;;;22.60;93.40;;;;;;5040598;28;20124;-47
2022/08/28 07:51:25;;;;;;;9.60;2.60;;;22.00;93.80;;;;;;5042874;28;20555;-49
2022/08/28 07:53:52;;;;;;;12.65;2.95;;;21.40;94.30;;;;;;5039038;28;20125;-49
2022/08/28 07:56:19;;;;;;;7.88;2.42;;;21.20;95.40;;;;;;5042439;28;20045;-49
2022/08/28 07:58:45;;;;;;;6.47;2.30;;;21.40;95.60;;;;;;5033700;28;20496;-48
2022/08/28 08:01:11;;;;;;;5.65;2.28;;;21.20;95.30;;;;;;5040069;28;20448;-51
2022/08/28 08:03:37;;;;;;;7.20;2.70;;;21.40;95.60;;;;;;5038700;28;20041;-48
2022/08/28 08:06:04;;;;;;;6.57;2.42;;;21.50;95.80;;;;;;5041446;28;20057;-49
2022/08/28 08:08:32;;;;;;;5.65;2.50;;;21.30;95.80;;;;;;5021511;28;20069;-50
2022/08/28 08:10:59;;;;;;;5.88;2.53;;;20.90;95.80;;;;;;5034584;28;20063;-48
2022/08/28 08:13:26;;;;;;;8.52;2.88;;;20.70;96.20;;;;;;5023186;28;20056;-48
2022/08/28 08:15:52;;;;;;;5.40;2.20;;;20.60;96.90;;;;;;5044330;28;20265;-50
2022/08/28 08:18:18;;;;;;;9.82;2.45;;;20.70;97.20;;;;;;5027077;28;20057;-52
2022/08/28 08:20:43;;;;;;;11.75;2.65;;;20.90;97.20;;;;;;5042175;28;20049;-48
2022/08/28 08:23:09;;;;;;;6.00;2.28;;;21.20;97.10;;;;;;5042352;28;20060;-49
2022/08/28 08:25:36;;;;;;;7.10;2.40;;;21.30;96.40;;;;;;5027410;28;20101;-50
2022/08/28 08:28:02;;;;;;;7.38;3.17;;;21.40;96.50;;;;;;5023980;28;20079;-48
2022/08/28 08:30:28;;;;;;;8.25;2.63;;;21.50;95.70;;;;;;5040538;28;20075;-49
2022/08/28 08:32:54;;;;;;;7.00;2.42;;;21.50;95.90;;;;;;5037290;28;20048;-51
2022/08/28 08:35:19;;;;;;;13.70;3.00;;;21.60;95.90;;;;;;5041119;28;20048;-50
2022/08/28 08:37:45;;;;;;;5.68;2.10;;;21.10;95.40;;;;;;5042504;28;20614;-51
2022/08/28 08:40:17;;;;;;;7.78;2.70;;;20.90;96.10;;;;;;5040410;28;20558;-48
2022/08/28 08:42:46;;;;;;;7.93;2.28;;;20.70;96.20;;;;;;5001845;28;20103;-49
2022/08/28 08:45:17;;;;;;;6.07;2.53;;;20.30;96.20;;;;;;5035967;28;20060;-50
2022/08/28 08:47:50;;;;;;;7.40;2.35;;;20.20;96.50;;;;;;5020568;28;20076;-49
2022/08/28 08:50:23;;;;;;;9.68;3.40;;;20.20;97.10;;;;;;5039166;28;20402;-50
2022/08/28 08:52:53;;;;;;;6.35;2.38;;;20.20;97.30;;;;;;5018191;28;20059;-49
2022/08/28 08:55:33;;;;;;;6.47;2.33;;;20.20;97.30;;;;;;5020730;28;20472;-50
2022/08/28 08:58:10;;;;;;;10.38;2.35;;;20.50;97.70;;;;;;5042311;28;20072;-51
2022/08/28 09:01:02;;;;;;;6.65;2.53;;;20.80;97.50;;;;;;5038980;28;20099;-49
2022/08/28 09:03:54;;;;;;;5.40;2.20;;;21.40;97.30;;;;;;5037135;28;20036;-49
2022/08/28 09:06:44;;;;;;;7.53;2.40;;;21.80;95.60;;;;;;5016492;28;20045;-50
2022/08/28 09:09:39;;;;;;;16.90;7.85;;;21.80;95.60;;;;;;5033801;28;20068;-48
2022/08/28 09:12:10;;;;;;;11.80;2.88;;;21.30;95.90;;;;;;5006097;28;20435;-49
2022/08/28 09:15:08;;;;;;;7.20;2.58;;;21.40;96.20;;;;;;5004552;28;20114;-49
2022/08/28 09:17:40;;;;;;;8.05;2.55;;;21.00;95.90;;;;;;4980534;28;20192;-51
2022/08/28 09:20:08;;;;;;;7.78;2.38;;;21.00;96.30;;;;;;4979173;28;20086;-50
2022/08/28 09:22:41;;;;;;;9.02;3.90;;;21.00;96.60;;;;;;4963023;28;20461;-49
2022/08/28 09:25:08;;;;;;;;;;;21.20;96.80;;;;;;4980609;28;20050;-50
2022/08/28 09:27:34;;;;;;;24.70;3.63;;;21.40;95.40;;;;;;4997116;28;20411;-51
2022/08/28 09:30:09;;;;;;;6.75;2.67;;;21.40;95.10;;;;;;4998096;28;20049;-48
2022/08/28 09:32:42;;;;;;;14.02;2.85;;;21.20;95.30;;;;;;4997755;28;20046;-50
2022/08/28 09:35:12;;;;;;;7.25;2.55;;;21.30;95.10;;;;;;4993414;28;20058;-49
2022/08/28 09:37:39;;;;;;;7.38;2.10;;;21.20;96.10;;;;;;4995468;28;20068;-52
2022/08/28 09:40:22;;;;;;;7.32;2.30;;;21.30;95.90;;;;;;4990988;28;20148;-49
2022/08/28 09:43:26;;;;;;;6.90;2.50;;;21.90;95.70;;;;;;5000682;28;20437;-49
2022/08/28 09:46:03;;;;;;;4.90;2.03;;;22.10;95.60;;;;;;4993662;28;20140;-52
2022/08/28 09:48:39;;;;;;;10.07;2.20;;;21.90;94.90;;;;;;4996643;28;20829;-51
2022/08/28 09:51:05;;;;;;;8.48;2.40;;;21.70;95.20;;;;;;4995782;28;20064;-53
2022/08/28 09:53:56;;;;;;;6.13;2.03;;;21.50;94.40;;;;;;4993549;28;20061;-54
2022/08/28 09:56:34;;;;;;;6.22;2.45;;;21.40;94.80;;;;;;5022697;28;20045;-52
2022/08/28 09:59:05;;;;;;;11.63;3.60;;;21.70;95.80;;;;;;5022551;28;20054;-52
2022/08/28 10:01:40;;;;;;;76.63;6.70;;;21.90;94.50;;;;;;5022559;28;20053;-54
2022/08/28 10:04:15;;;;;;;12.57;3.42;;;21.50;94.80;;;;;;5022479;28;20050;-53
2022/08/28 10:07:10;;;;;;;14.07;3.47;;;21.10;95.20;;;;;;5021296;28;20052;-53
2022/08/28 10:09:50;;;;;;;10.10;2.50;;;20.70;95.30;;;;;;5012187;28;20080;-51
2022/08/28 10:12:28;;;;;;;6.60;2.95;;;20.40;95.80;;;;;;5022416;28;20167;-51
2022/08/28 10:15:19;;;;;;;8.63;2.67;;;20.70;95.80;;;;;;5020106;28;20216;-50
2022/08/28 10:18:12;;;;;;;7.85;2.75;;;20.70;95.00;;;;;;5018900;28;20096;-52
2022/08/28 10:21:05;;;;;;;9.98;3.10;;;20.90;95.40;;;;;;5016056;28;20455;-53
2022/08/28 10:23:43;;;;;;;;;;;21.50;95.90;;;;;;5000757;28;20424;-54
2022/08/28 10:26:19;;;;;;;9.60;3.03;;;21.70;94.20;;;;;;4998724;28;20702;-51
2022/08/28 10:29:39;;;;;;;6.15;2.50;;;21.70;94.40;;;;;;5001162;28;20596;-54
2022/08/28 10:32:13;;;;;;;7.32;2.35;;;21.90;95.10;;;;;;4961033;28;20074;-55
2022/08/28 10:34:59;;;;;;;4.80;2.38;;;21.80;94.80;;;;;;4965965;28;20125;-54
2022/08/28 10:37:57;;;;;;;5.35;1.90;;;22.00;93.30;;;;;;4947038;28;20063;-52
2022/08/28 10:40:37;;;;;;;4.93;2.17;;;22.20;93.70;;;;;;4905531;29;20063;-51
2022/08/28 10:43:12;;;;;;;6.28;2.30;;;22.30;93.20;;;;;;4905917;29;20859;-54
2022/08/28 10:45:39;;;;;;;4.53;2.22;;;22.20;93.50;;;;;;4889911;29;20072;-54
2022/08/28 10:48:18;;;;;;;5.82;2.28;;;21.80;93.70;;;;;;4905959;29;20169;-55
2022/08/28 10:51:03;;;;;;;11.10;2.90;;;21.50;93.60;;;;;;4906042;29;20587;-54
2022/08/28 10:53:40;;;;;;;6.00;2.80;;;21.30;93.40;;;;;;4906125;29;20066;-54
2022/08/28 10:56:13;;;;;;;39.00;6.68;;;21.30;93.20;;;;;;4891191;29;20072;-56
2022/08/28 10:58:39;;;;;;;5.78;2.47;;;21.20;93.50;;;;;;4892686;29;20607;-55
2022/08/28 11:01:12;;;;;;;7.68;2.42;;;21.40;93.30;;;;;;4908005;29;20600;-56
2022/08/28 11:03:48;;;;;;;6.05;1.95;;;21.80;93.70;;;;;;4924131;29;20779;-55
2022/08/28 11:06:29;;;;;;;8.65;1.90;;;22.10;92.30;;;;;;4927037;29;20059;-55
2022/08/28 11:08:58;;;;;;;2.92;2.10;;;22.00;92.30;;;;;;4911756;29;20062;-55
2022/08/28 11:11:45;;;;;;;7.47;2.58;;;21.50;92.60;;;;;;4926959;29;20076;-55
2022/08/28 11:14:33;;;;;;;6.15;1.90;;;21.20;93.70;;;;;;4927584;29;20448;-55
2022/08/28 11:17:04;;;;;;;4.50;1.70;;;21.30;92.10;;;;;;4957676;28;20070;-56
2022/08/28 11:19:44;;;;;;;7.97;2.25;;;21.70;92.90;;;;;;5005801;28;20054;-54
2022/08/28 11:22:18;;;;;;;7.68;2.00;;;21.90;91.70;;;;;;5018741;28;20203;-55
2022/08/28 11:24:54;;;;;;;6.05;2.28;;;21.80;92.40;;;;;;5045695;28;20053;-55
2022/08/28 11:27:35;;;;;;;6.10;2.42;;;21.80;92.00;;;;;;5041646;28;20041;-54
2022/08/28 11:30:10;;;;;;;8.32;2.22;;;21.90;92.50;;;;;;5038825;28;20069;-55
2022/08/28 11:32:38;;;;;;;9.73;2.60;;;22.10;92.90;;;;;;5039554;28;20048;-56
2022/08/28 11:35:40;;;;;;;6.68;2.38;;;22.00;91.80;;;;;;5022016;28;20136;-54
2022/08/28 11:38:07;;;;;;;7.25;2.38;;;21.40;91.60;;;;;;5037203;28;20048;-55
2022/08/28 11:40:33;;;;;;;4.47;2.42;;;21.30;92.70;;;;;;5027512;28;20056;-54
2022/08/28 11:43:14;;;;;;;5.05;2.30;;;21.30;92.20;;;;;;5028010;28;20110;-55
2022/08/28 11:45:45;;;;;;;4.90;2.40;;;21.80;93.20;;;;;;5010424;28;20057;-58
2022/08/28 11:48:34;;;;;;;7.80;2.30;;;22.10;92.00;;;;;;5026117;28;20056;-53
2022/08/28 11:51:44;;;;;;;5.50;2.47;;;22.40;91.60;;;;;;5045674;28;20041;-55
2022/08/28 11:54:28;;;;;;;5.68;2.30;;;22.10;91.70;;;;;;5044979;28;20778;-56
2022/08/28 11:57:12;;;;;;;7.40;2.05;;;22.10;92.30;;;;;;5041472;28;20365;-56
2022/08/28 12:00:01;;;;;;;8.35;2.20;;;22.20;92.00;;;;;;5040007;28;20056;-57
2022/08/28 12:02:39;;;;;;;7.75;2.47;;;22.10;92.10;;;;;;5039743;28;20046;-55
2022/08/28 12:05:10;;;;;;;5.35;2.05;;;22.10;92.20;;;;;;5042569;28;20045;-55
2022/08/28 12:07:39;;;;;;;5.57;2.20;;;21.70;91.90;;;;;;5021942;28;20138;-57
2022/08/28 12:10:25;;;;;;;7.20;2.85;;;21.50;92.00;;;;;;5011190;28;20167;-56
2022/08/28 12:13:01;;;;;;;7.60;2.63;;;21.20;93.50;;;;;;5046496;28;20087;-56
2022/08/28 12:15:27;;;;;;;7.55;2.20;;;21.20;94.00;;;;;;5024521;28;20812;-54
2022/08/28 12:18:01;;;;;;;4.30;2.10;;;21.30;94.30;;;;;;5042470;28;20049;-56
2022/08/28 12:20:46;;;;;;;11.52;2.35;;;21.40;94.20;;;;;;5045170;28;20052;-57
2022/08/28 12:23:55;;;;;;;4.95;2.20;;;21.60;94.10;;;;;;5045354;28;20527;-55
2022/08/28 12:26:40;;;;;;;9.30;2.60;;;21.70;93.40;;;;;;5045545;28;20056;-55
2022/08/28 12:29:20;;;;;;;5.05;2.20;;;21.60;93.90;;;;;;5044731;28;20123;-55
2022/08/28 12:32:25;;;;;;;6.10;2.25;;;21.20;94.40;;;;;;5045007;28;20134;-54
2022/08/28 12:34:57;;;;;;;7.50;2.60;;;21.10;94.60;;;;;;5044850;28;20057;-56
2022/08/28 12:37:31;;;;;;;7.85;3.20;;;21.00;94.50;;;;;;5026813;28;20057;-56
2022/08/28 12:40:06;;;;;;;5.47;2.25;;;21.10;94.40;;;;;;5027362;28;20095;-55
2022/08/28 12:42:36;;;;;;;10.50;2.50;;;21.30;94.20;;;;;;5045216;28;20135;-58
2022/08/28 12:45:07;;;;;;;4.32;1.70;;;21.50;93.60;;;;;;5044861;28;20048;-58
2022/08/28 12:47:36;;;;;;;5.05;1.92;;;21.70;92.50;;;;;;5046464;28;20060;-56
2022/08/28 12:50:35;;;;;;;4.20;1.85;;;21.90;93.00;;;;;;5025614;28;20064;-53
2022/08/28 12:53:05;;;;;;;2.67;1.40;;;22.10;92.10;;;;;;5021546;28;20118;-54
2022/08/28 12:55:32;;;;;;;5.10;1.95;;;21.90;91.80;;;;;;5045847;28;20084;-56
2022/08/28 12:57:58;;;;;;;5.07;2.47;;;21.90;91.50;;;;;;5027607;28;20718;-56
2022/08/28 13:00:34;;;;;;;10.80;2.28;;;22.00;92.10;;;;;;5045480;28;20138;-56
2022/08/28 13:03:01;;;;;;;4.97;1.75;;;21.80;92.20;;;;;;5011476;28;20415;-56
2022/08/28 13:05:39;;;;;;;3.55;1.70;;;21.70;92.60;;;;;;5027222;28;20083;-56
2022/08/28 13:08:08;;;;;;;5.53;1.77;;;21.80;93.30;;;;;;5027380;28;20076;-54
2022/08/28 13:10:46;;;;;;;6.63;1.95;;;21.60;92.50;;;;;;5044958;28;20049;-54
2022/08/28 13:13:37;;;;;;;5.43;2.08;;;21.70;93.30;;;;;;5044154;28;20054;-55
2022/08/28 13:16:07;;;;;;;6.97;2.20;;;21.90;93.40;;;;;;4944706;28;20066;-58